< Cyclone 197006 1970 Season Cyclone 197008 >
Cyclone 197007 (UNNAMED)
General InformationTrack Information on Google Maps || ResourceGoogle EarthGE AnimationAtom FeedGeoJSON
Detalied Best Track (Time Zone = UTC)
Year Month Day Hour Lat. Long. Pressure (hPa) Wind (kt) Class Image Chart
1970 3 1 05 -13.5 147.0 1003 0 0 -- --
1970 3 1 08 -13.7 147.0 1003 0 0 -- --
1970 3 1 11 -13.9 147.0 1005 0 0 -- --
1970 3 1 14 -14.1 147.0 1005 0 0 -- --
1970 3 1 17 -14.3 147.1 1004 0 0 -- --
1970 3 1 20 -14.4 147.1 1005 0 0 -- --
1970 3 1 23 -14.5 147.2 1006 0 0 -- --
1970 3 2 02 -14.6 147.2 1006 0 0 -- --
1970 3 2 05 -14.8 147.3 1004 0 0 -- --
1970 3 2 08 -15.0 147.3 1004 0 0 -- --
1970 3 2 11 -15.2 147.4 1005 0 0 -- --
1970 3 2 14 -15.3 147.5 1004 0 0 -- --
1970 3 2 17 -15.4 147.6 1003 0 0 -- --
1970 3 2 20 -15.5 147.8 1003 0 0 -- --
1970 3 2 23 -15.5 148.2 1005 0 0 -- --
1970 3 3 02 -15.5 148.4 1005 0 0 -- --
1970 3 3 05 -15.5 148.7 1002 0 0 -- --
1970 3 3 08 -15.5 149.0 1001 0 0 -- --
1970 3 3 11 -15.5 149.2 1002 0 0 -- --
1970 3 3 14 -15.5 149.6 1002 0 0 -- --
1970 3 3 17 -15.5 149.8 1001 0 0 -- --
1970 3 3 20 -15.6 150.1 1001 0 0 -- --
1970 3 3 23 -15.7 150.4 1002 0 0 -- --
1970 3 4 02 -15.7 150.7 1001 0 0 -- --
1970 3 4 05 -15.8 151.0 1000 0 0 -- --
1970 3 4 08 -15.9 151.3 1001 0 0 -- --
1970 3 4 11 -16.0 151.7 1001 0 0 -- --
1970 3 4 14 -16.1 151.9 1000 0 0 -- --
1970 3 4 17 -16.2 152.3 1000 0 0 -- --
1970 3 4 20 -16.4 152.7 1001 0 0 -- --
1970 3 4 23 -16.6 153.1 1001 0 0 -- --
< Cyclone 197006 1970 Season Cyclone 197008 >

Help